createdAt,value
2022-10-19T00:00:56.112Z,956.6
2022-10-19T00:01:58.102Z,956.6
2022-10-19T00:02:59.943Z,956.6
2022-10-19T00:04:09.079Z,956.6
2022-10-19T00:05:10.862Z,956.6
2022-10-19T00:06:12.493Z,956.6
2022-10-19T00:07:14.048Z,956.6
2022-10-19T00:08:15.590Z,956.6
2022-10-19T00:09:17.138Z,956.6
2022-10-19T00:10:18.722Z,956.5
2022-10-19T00:11:20.304Z,956.5
2022-10-19T00:12:21.829Z,956.5
2022-10-19T00:13:23.407Z,956.5
2022-10-19T00:14:24.951Z,956.5
2022-10-19T00:15:26.494Z,956.4
2022-10-19T00:16:28.098Z,956.4
2022-10-19T00:17:29.720Z,956.4
2022-10-19T00:18:31.399Z,956.4
2022-10-19T00:19:32.957Z,956.4
2022-10-19T00:20:34.517Z,956.4
2022-10-19T00:21:36.104Z,956.4
2022-10-19T00:22:37.644Z,956.4
2022-10-19T00:23:39.184Z,956.4
2022-10-19T00:24:40.724Z,956.4
2022-10-19T00:25:42.320Z,956.4
2022-10-19T00:26:43.872Z,956.3
2022-10-19T00:27:45.426Z,956.3
2022-10-19T00:28:47.397Z,956.3
2022-10-19T00:29:49.032Z,956.3
2022-10-19T00:30:50.686Z,956.3
2022-10-19T00:31:52.269Z,956.3
2022-10-19T00:32:53.890Z,956.3
2022-10-19T00:33:55.488Z,956.2
2022-10-19T00:34:57.020Z,956.3
2022-10-19T00:35:58.616Z,956.2
2022-10-19T00:37:00.157Z,956.2
2022-10-19T00:38:01.709Z,956.2
2022-10-19T00:39:03.251Z,956.1
2022-10-19T00:40:04.792Z,956.1
2022-10-19T00:41:06.436Z,956.1
2022-10-19T00:42:07.982Z,956.1
2022-10-19T00:43:09.549Z,956
2022-10-19T00:44:11.161Z,956.1
2022-10-19T00:45:12.700Z,956
2022-10-19T00:46:14.283Z,956
2022-10-19T00:47:15.885Z,956
2022-10-19T00:48:17.494Z,955.9
2022-10-19T00:49:19.100Z,955.9
2022-10-19T00:50:20.649Z,955.9
2022-10-19T00:51:22.257Z,955.9
2022-10-19T00:52:23.855Z,955.9
2022-10-19T00:53:25.396Z,955.8
2022-10-19T00:54:26.959Z,955.8
2022-10-19T00:55:28.511Z,955.8
2022-10-19T00:56:30.061Z,955.8
2022-10-19T00:57:31.691Z,955.8
2022-10-19T00:58:33.230Z,955.8
2022-10-19T00:59:34.781Z,955.8
2022-10-19T01:00:36.316Z,955.8
2022-10-19T01:01:37.951Z,955.8
2022-10-19T01:02:39.489Z,955.8
2022-10-19T01:03:41.101Z,955.8
2022-10-19T01:04:42.661Z,955.8
2022-10-19T01:05:44.187Z,955.8
2022-10-19T01:06:45.920Z,955.8
2022-10-19T01:07:47.566Z,955.8
2022-10-19T01:08:49.111Z,955.8
2022-10-19T01:09:50.650Z,955.7
2022-10-19T01:10:52.186Z,955.7
2022-10-19T01:11:53.731Z,955.7
2022-10-19T01:12:55.330Z,955.6
2022-10-19T01:13:56.885Z,955.7
2022-10-19T01:14:58.490Z,955.7
2022-10-19T01:16:00.098Z,955.6
2022-10-19T01:17:01.836Z,955.6
2022-10-19T01:18:03.381Z,955.6
2022-10-19T01:19:05.006Z,955.6
2022-10-19T01:20:06.629Z,955.6
2022-10-19T01:21:08.190Z,955.6
2022-10-19T01:22:09.731Z,955.6
2022-10-19T01:23:11.269Z,955.6
2022-10-19T01:24:12.824Z,955.6
2022-10-19T01:25:14.411Z,955.6
2022-10-19T01:26:15.970Z,955.6
2022-10-19T01:27:17.528Z,955.6
2022-10-19T01:28:19.029Z,955.5
2022-10-19T01:29:20.562Z,955.5
2022-10-19T01:30:22.150Z,955.5
2022-10-19T01:31:23.687Z,955.5
2022-10-19T01:32:25.232Z,955.5
2022-10-19T01:33:26.770Z,955.5
2022-10-19T01:34:28.383Z,955.5
2022-10-19T01:35:29.996Z,955.5
2022-10-19T01:36:31.569Z,955.5
2022-10-19T01:37:34.513Z,955.5
2022-10-19T01:38:36.913Z,955.4
2022-10-19T01:39:38.458Z,955.4
2022-10-19T01:40:40.062Z,955.4
2022-10-19T01:41:41.594Z,955.4
2022-10-19T01:42:43.373Z,955.4
2022-10-19T01:43:45.130Z,955.4
2022-10-19T01:44:46.674Z,955.4
2022-10-19T01:45:48.223Z,955.4
2022-10-19T01:46:49.819Z,955.3
2022-10-19T01:47:51.361Z,955.4
2022-10-19T01:48:52.928Z,955.4
2022-10-19T01:49:54.550Z,955.4
2022-10-19T01:50:56.129Z,955.4
2022-10-19T01:53:00.301Z,955.4
2022-10-19T01:54:01.852Z,955.4
2022-10-19T01:55:03.407Z,955.4
2022-10-19T01:56:04.953Z,955.4
2022-10-19T01:57:06.494Z,955.4
2022-10-19T01:58:10.000Z,955.4
2022-10-19T01:59:11.590Z,955.4
2022-10-19T02:00:13.128Z,955.3
2022-10-19T02:01:14.837Z,955.3
2022-10-19T02:02:16.450Z,955.3
2022-10-19T02:03:18.000Z,955.3
2022-10-19T02:04:19.544Z,955.3
2022-10-19T02:05:21.179Z,955.3
2022-10-19T02:06:22.789Z,955.3
2022-10-19T02:07:24.319Z,955.3
2022-10-19T02:08:25.911Z,955.3
2022-10-19T02:09:27.526Z,955.3
2022-10-19T02:10:29.069Z,955.3
2022-10-19T02:11:30.611Z,955.3
2022-10-19T02:12:33.874Z,955.3
2022-10-19T02:13:36.426Z,955.3
2022-10-19T02:14:37.940Z,955.3
2022-10-19T02:15:39.489Z,955.3
2022-10-19T02:16:41.035Z,955.3
2022-10-19T02:17:43.349Z,955.3
2022-10-19T02:18:44.949Z,955.3
2022-10-19T02:19:46.482Z,955.3
2022-10-19T02:20:48.087Z,955.3
2022-10-19T02:21:49.693Z,955.3
2022-10-19T02:22:51.974Z,955.3
2022-10-19T02:23:54.720Z,955.3
2022-10-19T02:24:56.316Z,955.3
2022-10-19T02:25:57.884Z,955.3
2022-10-19T02:27:02.185Z,955.3
2022-10-19T02:28:03.782Z,955.3
2022-10-19T02:29:05.414Z,955.3
2022-10-19T02:30:06.942Z,955.3
2022-10-19T02:31:08.479Z,955.3
2022-10-19T02:32:10.049Z,955.2
2022-10-19T02:33:11.631Z,955.3
2022-10-19T02:34:13.215Z,955.3
2022-10-19T02:35:14.770Z,955.2
2022-10-19T02:36:16.373Z,955.2
2022-10-19T02:37:25.824Z,955.2
2022-10-19T02:38:27.805Z,955.2
2022-10-19T02:39:32.208Z,955.2
2022-10-19T02:40:33.753Z,955.2
2022-10-19T02:41:35.298Z,955.2
2022-10-19T02:42:37.421Z,955.2
2022-10-19T02:43:38.954Z,955.2
2022-10-19T02:44:40.552Z,955.3
2022-10-19T02:45:42.085Z,955.2
2022-10-19T02:46:43.623Z,955.2
2022-10-19T02:47:45.229Z,955.2
2022-10-19T02:48:46.737Z,955.2
2022-10-19T02:49:48.304Z,955.2
2022-10-19T02:50:49.837Z,955.2
2022-10-19T02:51:51.448Z,955.2
2022-10-19T02:52:53.064Z,955.2
2022-10-19T02:53:54.620Z,955.1
2022-10-19T02:54:56.227Z,955.1
2022-10-19T02:55:57.767Z,955.1
2022-10-19T02:56:59.307Z,955.1
2022-10-19T02:58:00.891Z,955
2022-10-19T02:59:02.425Z,955.1
2022-10-19T03:00:04.059Z,955.1
2022-10-19T03:01:05.834Z,955.1
2022-10-19T03:02:07.507Z,955
2022-10-19T03:03:09.119Z,955.1
2022-10-19T03:04:10.652Z,955
2022-10-19T03:05:12.187Z,955
2022-10-19T03:06:13.728Z,955
2022-10-19T03:07:15.330Z,955
2022-10-19T03:08:16.932Z,955
2022-10-19T03:09:18.569Z,955
2022-10-19T03:10:20.107Z,955
2022-10-19T03:11:21.661Z,955
2022-10-19T03:12:23.340Z,955
2022-10-19T03:13:24.885Z,955
2022-10-19T03:14:26.430Z,955.1
2022-10-19T03:15:28.005Z,955.1
2022-10-19T03:16:29.553Z,955.1
2022-10-19T03:17:32.163Z,955.1
2022-10-19T03:18:34.601Z,955.2
2022-10-19T03:19:36.138Z,955.2
2022-10-19T03:20:37.685Z,955.2
2022-10-19T03:21:39.228Z,955.2
2022-10-19T03:22:41.239Z,955.2
2022-10-19T03:23:43.065Z,955.2
2022-10-19T03:24:44.596Z,955.2
2022-10-19T03:25:46.169Z,955.2
2022-10-19T03:26:47.720Z,955.2
2022-10-19T03:27:49.316Z,955.2
2022-10-19T03:28:50.997Z,955.2
2022-10-19T03:29:52.618Z,955.2
2022-10-19T03:30:54.164Z,955.2
2022-10-19T03:31:55.770Z,955.2
2022-10-19T03:32:57.314Z,955.2
2022-10-19T03:33:58.849Z,955.2
2022-10-19T03:35:00.435Z,955.3
2022-10-19T03:36:01.983Z,955.2
2022-10-19T03:37:03.571Z,955.2
2022-10-19T03:38:05.197Z,955.2
2022-10-19T03:39:06.757Z,955.2
2022-10-19T03:40:08.297Z,955.2
2022-10-19T03:41:09.861Z,955.2
2022-10-19T03:42:11.500Z,955.2
2022-10-19T03:43:13.047Z,955.1
2022-10-19T03:44:14.610Z,955.2
2022-10-19T03:45:16.225Z,955.2
2022-10-19T03:46:17.797Z,955.1
2022-10-19T03:47:19.795Z,955.1
2022-10-19T03:48:21.344Z,955.1
2022-10-19T03:49:23.077Z,955.1
2022-10-19T03:50:24.617Z,955.1
2022-10-19T03:51:26.166Z,955.1
2022-10-19T03:52:27.766Z,955.1
2022-10-19T03:53:33.507Z,955.1
2022-10-19T03:54:35.054Z,955
2022-10-19T03:55:36.601Z,955
2022-10-19T03:56:38.217Z,955
2022-10-19T03:57:39.760Z,955
2022-10-19T03:58:41.306Z,955
2022-10-19T03:59:42.875Z,955
2022-10-19T04:00:44.586Z,955
2022-10-19T04:01:46.215Z,955
2022-10-19T04:02:47.793Z,955
2022-10-19T04:03:49.335Z,955
2022-10-19T04:04:50.903Z,955
2022-10-19T04:05:52.449Z,955
2022-10-19T04:06:54.016Z,955
2022-10-19T04:07:55.556Z,955
2022-10-19T04:08:57.246Z,955
2022-10-19T04:09:58.851Z,955
2022-10-19T04:11:00.395Z,955.1
2022-10-19T04:12:02.020Z,955.1
2022-10-19T04:13:03.546Z,955.1
2022-10-19T04:14:05.492Z,955
2022-10-19T04:15:07.108Z,955
2022-10-19T04:16:08.666Z,955
2022-10-19T04:17:10.284Z,955
2022-10-19T04:18:11.832Z,955
2022-10-19T04:19:13.684Z,955
2022-10-19T04:20:15.236Z,955
2022-10-19T04:21:16.890Z,954.9
2022-10-19T04:22:18.438Z,954.9
2022-10-19T04:23:20.066Z,954.9
2022-10-19T04:24:21.684Z,954.9
2022-10-19T04:25:23.318Z,954.9
2022-10-19T04:26:24.903Z,954.9
2022-10-19T04:27:26.461Z,954.8
2022-10-19T04:28:28.299Z,954.8
2022-10-19T04:29:31.184Z,954.8
2022-10-19T04:30:35.768Z,954.8
2022-10-19T04:31:37.335Z,954.8
2022-10-19T04:32:38.899Z,954.8
2022-10-19T04:33:40.863Z,954.8
2022-10-19T04:34:42.682Z,954.8
2022-10-19T04:35:44.213Z,954.8
2022-10-19T04:36:45.777Z,954.9
2022-10-19T04:37:47.346Z,954.8
2022-10-19T04:38:48.904Z,954.8
2022-10-19T04:39:50.600Z,954.8
2022-10-19T04:40:52.177Z,954.8
2022-10-19T04:41:53.715Z,954.8
2022-10-19T04:42:55.282Z,954.8
2022-10-19T04:43:56.858Z,954.8
2022-10-19T04:44:58.527Z,954.8
2022-10-19T04:46:00.057Z,954.8
2022-10-19T04:47:01.603Z,954.9
2022-10-19T04:48:03.220Z,954.8
2022-10-19T04:49:04.763Z,954.8
2022-10-19T04:50:06.321Z,954.8
2022-10-19T04:51:07.828Z,954.9
2022-10-19T04:52:09.381Z,954.9
2022-10-19T04:53:11.135Z,954.9
2022-10-19T04:54:12.809Z,954.9
2022-10-19T04:55:14.419Z,954.9
2022-10-19T04:56:16.020Z,954.9
2022-10-19T04:57:17.843Z,954.9
2022-10-19T04:58:19.402Z,954.9
2022-10-19T04:59:21.009Z,954.9
2022-10-19T05:00:22.569Z,954.9
2022-10-19T05:01:24.460Z,954.9
2022-10-19T05:02:26.267Z,954.9
2022-10-19T05:03:27.823Z,954.9
2022-10-19T05:04:29.373Z,954.9
2022-10-19T05:05:30.915Z,954.9
2022-10-19T05:06:32.521Z,954.9
2022-10-19T05:07:35.156Z,954.9
2022-10-19T05:08:37.292Z,954.9
2022-10-19T05:09:38.834Z,954.9
2022-10-19T05:10:47.924Z,954.9
2022-10-19T05:11:49.681Z,954.9
2022-10-19T05:12:51.256Z,954.9
2022-10-19T05:13:52.805Z,954.9
2022-10-19T05:14:54.340Z,954.9
2022-10-19T05:15:55.893Z,954.9
2022-10-19T05:16:57.465Z,954.8
2022-10-19T05:17:59.014Z,954.9
2022-10-19T05:19:00.592Z,954.8
2022-10-19T05:20:02.142Z,954.8
2022-10-19T05:21:03.773Z,954.8
2022-10-19T05:22:05.405Z,954.8
2022-10-19T05:23:07.686Z,954.8
2022-10-19T05:24:09.232Z,954.8
2022-10-19T05:25:10.779Z,954.8
2022-10-19T05:26:12.417Z,954.8
2022-10-19T05:27:13.972Z,954.8
2022-10-19T05:28:15.515Z,954.8
2022-10-19T05:29:17.091Z,954.8
2022-10-19T05:30:18.629Z,954.8
2022-10-19T05:31:20.271Z,954.7
2022-10-19T05:32:21.824Z,954.8
2022-10-19T05:33:23.362Z,954.8
2022-10-19T05:34:24.959Z,954.8
2022-10-19T05:35:26.540Z,954.8
2022-10-19T05:36:28.147Z,954.8
2022-10-19T05:37:29.693Z,954.9
2022-10-19T05:38:31.270Z,954.9
2022-10-19T05:39:32.863Z,954.9
2022-10-19T05:40:34.409Z,954.9
2022-10-19T05:41:36.055Z,954.8
2022-10-19T05:42:37.616Z,954.8
2022-10-19T05:43:39.155Z,954.9
2022-10-19T05:44:41.193Z,954.8
2022-10-19T05:45:42.754Z,954.9
2022-10-19T05:46:44.458Z,954.9
2022-10-19T05:47:46.032Z,954.8
2022-10-19T05:48:47.634Z,954.9
2022-10-19T05:49:49.171Z,954.9
2022-10-19T05:50:50.707Z,954.9
2022-10-19T05:51:52.251Z,954.8
2022-10-19T05:52:53.835Z,954.9
2022-10-19T05:53:55.426Z,954.9
2022-10-19T05:54:57.017Z,954.9
2022-10-19T05:55:58.571Z,954.8
2022-10-19T05:57:00.231Z,954.8
2022-10-19T05:58:01.799Z,954.8
2022-10-19T05:59:03.397Z,954.8
2022-10-19T06:00:04.954Z,954.8
2022-10-19T06:01:06.510Z,954.8
2022-10-19T06:02:08.353Z,954.8
2022-10-19T06:03:09.993Z,954.8
2022-10-19T06:04:11.760Z,954.8
2022-10-19T06:05:13.399Z,954.8
2022-10-19T06:06:14.947Z,954.9
2022-10-19T06:07:16.550Z,954.9
2022-10-19T06:08:18.121Z,954.8
2022-10-19T06:09:19.665Z,954.8
2022-10-19T06:10:21.282Z,954.9
2022-10-19T06:11:22.837Z,954.9
2022-10-19T06:12:25.582Z,954.9
2022-10-19T06:13:27.258Z,954.9
2022-10-19T06:14:28.903Z,954.9
2022-10-19T06:15:30.515Z,954.9
2022-10-19T06:16:32.075Z,954.9
2022-10-19T06:17:34.875Z,954.9
2022-10-19T06:18:37.356Z,954.9
2022-10-19T06:19:38.908Z,955
2022-10-19T06:20:40.518Z,955
2022-10-19T06:21:46.356Z,955
2022-10-19T06:22:47.901Z,955
2022-10-19T06:23:49.513Z,955.1
2022-10-19T06:24:51.125Z,955.1
2022-10-19T06:25:52.675Z,955
2022-10-19T06:26:54.234Z,955.1
2022-10-19T06:27:55.975Z,955.1
2022-10-19T06:28:57.727Z,955.1
2022-10-19T06:29:59.329Z,955.1
2022-10-19T06:31:01.251Z,955.1
2022-10-19T06:32:06.076Z,955.1
2022-10-19T06:33:07.695Z,955.1
2022-10-19T06:34:09.734Z,955.1
2022-10-19T06:35:11.412Z,955.1
2022-10-19T06:36:12.952Z,955.1
2022-10-19T06:37:14.500Z,955.2
2022-10-19T06:38:16.070Z,955.1
2022-10-19T06:39:17.663Z,955.1
2022-10-19T06:40:19.516Z,955.1
2022-10-19T06:41:21.216Z,955.1
2022-10-19T06:42:22.800Z,955.1
2022-10-19T06:43:24.430Z,955.1
2022-10-19T06:44:26.073Z,955.1
2022-10-19T06:45:36.182Z,955.1
2022-10-19T06:46:37.816Z,955
2022-10-19T06:47:40.013Z,955
2022-10-19T06:48:41.617Z,955
2022-10-19T06:49:43.181Z,955
2022-10-19T06:50:44.719Z,955.1
2022-10-19T06:51:46.268Z,955
2022-10-19T06:52:47.843Z,955
2022-10-19T06:53:57.577Z,955
2022-10-19T06:54:59.316Z,955
2022-10-19T06:56:01.001Z,954.9
2022-10-19T06:57:02.600Z,954.9
2022-10-19T06:58:04.479Z,954.9
2022-10-19T06:59:06.157Z,954.9
2022-10-19T07:00:08.487Z,954.9
2022-10-19T07:01:10.487Z,954.9
2022-10-19T07:02:12.315Z,954.9
2022-10-19T07:03:13.922Z,954.8
2022-10-19T07:04:15.520Z,954.8
2022-10-19T07:05:17.110Z,954.8
2022-10-19T07:06:18.662Z,954.8
2022-10-19T07:07:20.237Z,954.8
2022-10-19T07:08:21.855Z,954.8
2022-10-19T07:09:23.444Z,954.8
2022-10-19T07:10:25.252Z,954.8
2022-10-19T07:11:26.968Z,954.8
2022-10-19T07:12:28.569Z,954.8
2022-10-19T07:13:30.132Z,954.8
2022-10-19T07:14:31.757Z,954.7
2022-10-19T07:15:33.337Z,954.7
2022-10-19T07:16:34.967Z,954.8
2022-10-19T07:17:37.318Z,954.8
2022-10-19T07:18:38.949Z,954.7
2022-10-19T07:19:40.629Z,954.8
2022-10-19T07:20:42.233Z,954.8
2022-10-19T07:21:43.808Z,954.8
2022-10-19T07:22:45.369Z,954.7
2022-10-19T07:23:46.928Z,954.8
2022-10-19T07:24:48.470Z,954.7
2022-10-19T07:25:50.012Z,954.7
2022-10-19T07:26:51.545Z,954.7
2022-10-19T07:27:53.099Z,954.7
2022-10-19T07:28:54.707Z,954.7
2022-10-19T07:29:56.319Z,954.7
2022-10-19T07:30:57.905Z,954.7
2022-10-19T07:31:59.518Z,954.6
2022-10-19T07:33:01.083Z,954.7
2022-10-19T07:34:02.654Z,954.7
2022-10-19T07:35:04.194Z,954.6
2022-10-19T07:36:05.775Z,954.6
2022-10-19T07:37:07.371Z,954.6
2022-10-19T07:38:08.909Z,954.6
2022-10-19T07:39:10.427Z,954.6
2022-10-19T07:40:11.980Z,954.6
2022-10-19T07:41:13.519Z,954.6
2022-10-19T07:42:15.402Z,954.6
2022-10-19T07:43:17.020Z,954.5
2022-10-19T07:44:18.562Z,954.5
2022-10-19T07:45:20.208Z,954.5
2022-10-19T07:46:21.850Z,954.5
2022-10-19T07:47:23.561Z,954.5
2022-10-19T07:48:25.148Z,954.5
2022-10-19T07:49:26.688Z,954.5
2022-10-19T07:50:28.247Z,954.5
2022-10-19T07:52:37.352Z,954.4
2022-10-19T07:53:39.019Z,954.4
2022-10-19T07:54:40.560Z,954.4
2022-10-19T07:55:42.100Z,954.4
2022-10-19T07:56:43.649Z,954.4
2022-10-19T07:57:47.338Z,954.4
2022-10-19T07:58:48.894Z,954.3
2022-10-19T07:59:50.442Z,954.3
2022-10-19T08:00:52.105Z,954.3
2022-10-19T08:01:54.053Z,954.3
2022-10-19T08:04:59.376Z,954.3
2022-10-19T08:06:05.406Z,954.2
2022-10-19T08:07:06.953Z,954.2
2022-10-19T08:08:08.494Z,954.2
2022-10-19T08:09:53.033Z,954.2
2022-10-19T08:10:55.964Z,954.2
2022-10-19T08:11:57.589Z,954.2
2022-10-19T08:12:59.130Z,954.2
2022-10-19T08:14:00.665Z,954.2
2022-10-19T08:15:02.202Z,954.2
2022-10-19T08:16:03.902Z,954.2
2022-10-19T08:17:05.551Z,954.3
2022-10-19T08:18:07.148Z,954.2
2022-10-19T08:19:08.696Z,954.2
2022-10-19T08:20:10.273Z,954.2
2022-10-19T08:21:11.821Z,954.2
2022-10-19T08:22:13.430Z,954.2
2022-10-19T08:23:14.994Z,954.2
2022-10-19T08:24:16.560Z,954.2
2022-10-19T08:25:18.111Z,954.2
2022-10-19T08:26:19.705Z,954.2
2022-10-19T08:27:21.294Z,954.2
2022-10-19T08:28:22.913Z,954.1
2022-10-19T08:29:31.800Z,954.1
2022-10-19T08:30:33.690Z,954.1
2022-10-19T08:31:36.056Z,954.1
2022-10-19T08:32:37.665Z,954.1
2022-10-19T08:33:39.204Z,954.1
2022-10-19T08:34:40.773Z,954.1
2022-10-19T08:35:42.366Z,954.1
2022-10-19T08:36:44.281Z,954.1
2022-10-19T08:37:47.324Z,954.1
2022-10-19T08:38:49.721Z,954.1
2022-10-19T08:39:51.261Z,954.1
2022-10-19T08:40:52.838Z,954.1
2022-10-19T08:41:54.402Z,954
2022-10-19T08:42:56.012Z,954
2022-10-19T08:43:57.786Z,954
2022-10-19T08:44:59.332Z,954
2022-10-19T08:46:00.883Z,954
2022-10-19T08:47:05.242Z,953.9
2022-10-19T08:48:09.334Z,953.9
2022-10-19T08:49:10.921Z,953.9
2022-10-19T08:50:12.599Z,954
2022-10-19T08:51:14.240Z,953.9
2022-10-19T08:52:15.799Z,953.9
2022-10-19T08:53:17.411Z,954
2022-10-19T08:54:18.950Z,953.9
2022-10-19T08:55:21.097Z,953.9
2022-10-19T08:56:52.146Z,953.9
2022-10-19T08:57:53.802Z,953.9
2022-10-19T08:58:55.406Z,953.9
2022-10-19T08:59:56.988Z,953.9
2022-10-19T09:00:58.552Z,953.8
2022-10-19T09:02:00.228Z,953.9
2022-10-19T09:03:01.894Z,953.9
2022-10-19T09:04:03.484Z,953.8
2022-10-19T09:05:05.060Z,953.8
2022-10-19T09:06:06.651Z,953.8
2022-10-19T09:07:08.421Z,953.8
2022-10-19T09:08:17.900Z,953.8
2022-10-19T09:09:19.563Z,953.8
2022-10-19T09:10:21.116Z,953.8
2022-10-19T09:11:22.772Z,953.8
2022-10-19T09:12:24.451Z,953.8
2022-10-19T09:14:04.035Z,953.8
2022-10-19T09:15:07.553Z,953.7
2022-10-19T09:16:09.085Z,953.7
2022-10-19T09:17:10.651Z,953.7
2022-10-19T09:18:12.348Z,953.7
2022-10-19T09:19:13.971Z,953.7
2022-10-19T09:20:15.546Z,953.7
2022-10-19T09:21:17.097Z,953.7
2022-10-19T09:22:18.768Z,953.7
2022-10-19T09:23:20.324Z,953.7
2022-10-19T09:24:21.874Z,953.7
2022-10-19T09:25:23.410Z,953.7
2022-10-19T09:26:25.048Z,953.6
2022-10-19T09:27:26.619Z,953.6
2022-10-19T09:28:40.238Z,953.6
2022-10-19T09:29:41.907Z,953.7
2022-10-19T09:30:43.469Z,953.6
2022-10-19T09:31:45.362Z,953.7
2022-10-19T09:32:47.112Z,953.6
2022-10-19T09:33:48.780Z,953.7
2022-10-19T09:34:50.382Z,953.7
2022-10-19T09:35:51.945Z,953.7
2022-10-19T09:36:53.577Z,953.7
2022-10-19T09:37:55.146Z,953.7
2022-10-19T09:38:56.799Z,953.7
2022-10-19T09:39:58.352Z,953.7
2022-10-19T09:41:00.021Z,953.7
2022-10-19T09:42:01.613Z,953.7
2022-10-19T09:43:03.276Z,953.7
2022-10-19T09:44:05.265Z,953.7
2022-10-19T09:45:06.896Z,953.7
2022-10-19T09:46:26.982Z,953.7
2022-10-19T09:47:28.627Z,953.6
2022-10-19T09:48:30.222Z,953.7
2022-10-19T09:49:31.904Z,953.7
2022-10-19T09:50:33.512Z,953.7
2022-10-19T09:51:35.153Z,953.7
2022-10-19T09:52:39.457Z,953.7
2022-10-19T09:53:41.064Z,953.7
2022-10-19T09:54:42.617Z,953.7
2022-10-19T09:55:44.388Z,953.7
2022-10-19T09:56:46.093Z,953.7
2022-10-19T09:57:47.636Z,953.7
2022-10-19T09:58:49.202Z,953.7
2022-10-19T09:59:50.784Z,953.7
2022-10-19T10:00:52.390Z,953.6
2022-10-19T10:01:54.453Z,953.7
2022-10-19T10:02:56.398Z,953.7
2022-10-19T10:03:58.072Z,953.6
2022-10-19T10:04:59.978Z,953.6
2022-10-19T10:06:01.583Z,953.5
2022-10-19T10:07:03.126Z,953.6
2022-10-19T10:08:04.664Z,953.5
2022-10-19T10:09:06.403Z,953.6
2022-10-19T10:10:08.053Z,953.5
2022-10-19T10:11:09.650Z,953.5
2022-10-19T10:12:11.356Z,953.5
2022-10-19T10:13:12.952Z,953.5
2022-10-19T10:14:14.534Z,953.5
2022-10-19T10:15:16.103Z,953.5
2022-10-19T10:16:17.641Z,953.5
2022-10-19T10:17:19.212Z,953.4
2022-10-19T10:18:20.819Z,953.4
2022-10-19T10:19:27.489Z,953.4
2022-10-19T10:20:29.114Z,953.3
2022-10-19T10:21:30.679Z,953.4
2022-10-19T10:22:33.462Z,953.3
2022-10-19T10:23:35.792Z,953.3
2022-10-19T10:24:37.338Z,953.3
2022-10-19T10:25:38.873Z,953.3
2022-10-19T10:26:40.430Z,953.2
2022-10-19T10:27:41.988Z,953.2
2022-10-19T10:28:43.624Z,953.1
2022-10-19T10:29:45.253Z,953.2
2022-10-19T10:30:46.856Z,953.1
2022-10-19T10:31:48.434Z,953.1
2022-10-19T10:32:50.164Z,953.1
2022-10-19T10:35:01.898Z,953.1
2022-10-19T10:36:03.627Z,953
2022-10-19T10:37:05.191Z,953.1
2022-10-19T10:38:06.792Z,953
2022-10-19T10:39:08.367Z,953
2022-10-19T10:40:09.910Z,953
2022-10-19T10:41:11.461Z,952.9
2022-10-19T10:42:13.021Z,952.9
2022-10-19T10:43:14.623Z,952.9
2022-10-19T10:44:16.167Z,952.9
2022-10-19T10:45:17.712Z,952.9
2022-10-19T10:46:19.375Z,952.9
2022-10-19T10:47:21.002Z,952.8
2022-10-19T10:48:22.694Z,952.8
2022-10-19T10:49:27.133Z,952.8
2022-10-19T10:50:28.760Z,952.8
2022-10-19T10:51:30.428Z,952.8
2022-10-19T10:52:33.578Z,952.8
2022-10-19T10:53:35.688Z,952.8
2022-10-19T10:54:37.294Z,952.7
2022-10-19T10:55:38.859Z,952.7
2022-10-19T10:56:40.401Z,952.7
2022-10-19T10:57:41.975Z,952.6
2022-10-19T10:58:43.543Z,952.6
2022-10-19T10:59:46.077Z,952.6
2022-10-19T11:00:47.663Z,952.6
2022-10-19T11:01:49.597Z,952.6
2022-10-19T11:02:51.469Z,952.5
2022-10-19T11:03:53.051Z,952.5
2022-10-19T11:04:54.650Z,952.5
2022-10-19T11:05:56.211Z,952.5
2022-10-19T11:06:57.825Z,952.5
2022-10-19T11:07:59.480Z,952.5
2022-10-19T11:09:01.380Z,952.5
2022-10-19T11:10:03.113Z,952.5
2022-10-19T11:11:05.001Z,952.5
2022-10-19T11:12:06.557Z,952.5
2022-10-19T11:13:08.106Z,952.5
2022-10-19T11:14:09.670Z,952.5
2022-10-19T11:15:11.208Z,952.5
2022-10-19T11:16:12.831Z,952.4
2022-10-19T11:17:14.391Z,952.4
2022-10-19T11:18:15.940Z,952.4
2022-10-19T11:19:17.530Z,952.4
2022-10-19T11:20:19.224Z,952.3
2022-10-19T11:21:20.772Z,952.3
2022-10-19T11:22:27.429Z,952.3
2022-10-19T11:23:29.021Z,952.3
2022-10-19T11:25:32.273Z,952.2
2022-10-19T11:26:33.909Z,952.3
2022-10-19T11:27:36.728Z,952.2
2022-10-19T11:28:39.086Z,952.2
2022-10-19T11:29:40.640Z,952.2
2022-10-19T11:30:48.607Z,952.2
2022-10-19T11:31:52.529Z,952.3
2022-10-19T11:32:54.059Z,952.2
2022-10-19T11:33:55.729Z,952.2
2022-10-19T11:34:57.318Z,952.2
2022-10-19T11:35:58.876Z,952.2
2022-10-19T11:37:00.463Z,952.2
2022-10-19T11:38:26.318Z,952.2
2022-10-19T11:39:31.791Z,952.2
2022-10-19T11:40:33.397Z,952.1
2022-10-19T11:41:34.963Z,952.1
2022-10-19T11:42:36.702Z,952
2022-10-19T11:43:38.445Z,952.1
2022-10-19T11:44:40.248Z,952.2
2022-10-19T11:45:41.870Z,952.1
2022-10-19T11:46:43.446Z,952.1
2022-10-19T11:47:44.986Z,952.1
2022-10-19T11:48:46.619Z,952.1
2022-10-19T11:49:48.201Z,952.1
2022-10-19T11:51:16.756Z,952
2022-10-19T11:52:23.377Z,952
2022-10-19T11:53:25.127Z,952
2022-10-19T11:54:26.710Z,951.9
2022-10-19T11:55:28.290Z,951.9
2022-10-19T11:57:05.635Z,951.9
2022-10-19T11:58:13.078Z,951.9
2022-10-19T11:59:14.657Z,951.9
2022-10-19T12:00:40.187Z,951.8
2022-10-19T12:01:42.459Z,951.8
2022-10-19T12:02:44.669Z,951.8
2022-10-19T12:03:46.225Z,951.8
2022-10-19T12:04:47.779Z,951.8
2022-10-19T12:05:49.352Z,951.8
2022-10-19T12:06:50.908Z,951.8
2022-10-19T12:07:52.453Z,951.8
2022-10-19T12:08:56.861Z,951.8
2022-10-19T12:09:58.659Z,951.8
2022-10-19T12:11:00.527Z,951.7
2022-10-19T12:12:02.071Z,951.8
2022-10-19T12:13:03.609Z,951.7
2022-10-19T12:14:05.173Z,951.7
2022-10-19T12:15:06.743Z,951.7
2022-10-19T12:16:08.309Z,951.7
2022-10-19T12:17:10.154Z,951.7
2022-10-19T12:18:11.841Z,951.7
2022-10-19T12:19:13.385Z,951.7
2022-10-19T12:20:20.216Z,951.7
2022-10-19T12:21:21.837Z,951.7
2022-10-19T12:22:23.402Z,951.7
2022-10-19T12:23:24.946Z,951.7
2022-10-19T12:24:26.584Z,951.7
2022-10-19T12:25:28.128Z,951.7
2022-10-19T12:26:29.747Z,951.7
2022-10-19T12:27:31.852Z,951.6
2022-10-19T12:28:33.961Z,951.6
2022-10-19T12:29:35.532Z,951.6
2022-10-19T12:30:37.120Z,951.6
2022-10-19T12:31:38.690Z,951.6
2022-10-19T12:32:40.257Z,951.6
2022-10-19T12:33:41.881Z,951.6
2022-10-19T12:34:43.448Z,951.6
2022-10-19T12:35:45.002Z,951.6
2022-10-19T12:36:46.597Z,951.6
2022-10-19T12:37:48.180Z,951.6
2022-10-19T12:39:00.529Z,951.6
2022-10-19T12:40:02.519Z,951.5
2022-10-19T12:41:04.097Z,951.6
2022-10-19T12:42:05.680Z,951.6
2022-10-19T12:43:07.288Z,951.6
2022-10-19T12:44:08.846Z,951.6
2022-10-19T12:45:10.398Z,951.5
2022-10-19T12:46:11.947Z,951.5
2022-10-19T12:47:13.538Z,951.5
2022-10-19T12:48:15.109Z,951.5
2022-10-19T12:49:16.917Z,951.5
2022-10-19T12:50:21.485Z,951.6
2022-10-19T12:51:23.045Z,951.6
2022-10-19T12:52:24.669Z,951.6
2022-10-19T12:54:27.764Z,951.5
2022-10-19T12:55:29.508Z,951.6
2022-10-19T12:56:31.152Z,951.5
2022-10-19T12:57:32.825Z,951.5
2022-10-19T12:58:34.477Z,951.6
2022-10-19T12:59:36.086Z,951.6
2022-10-19T13:00:38.144Z,951.6
2022-10-19T13:01:40.016Z,951.5
2022-10-19T13:02:41.662Z,951.5
2022-10-19T13:03:43.813Z,951.5
2022-10-19T13:04:45.480Z,951.5
2022-10-19T13:05:47.046Z,951.6
2022-10-19T13:06:48.657Z,951.6
2022-10-19T13:08:53.415Z,951.5
2022-10-19T13:09:55.126Z,951.5
2022-10-19T13:10:56.715Z,951.5
2022-10-19T13:11:58.345Z,951.5
2022-10-19T13:12:59.919Z,951.6
2022-10-19T13:14:01.475Z,951.6
2022-10-19T13:15:03.104Z,951.6
2022-10-19T13:16:04.722Z,951.5
2022-10-19T13:17:06.336Z,951.5
2022-10-19T13:18:07.900Z,951.5
2022-10-19T13:19:09.479Z,951.6
2022-10-19T13:20:11.198Z,951.5
2022-10-19T13:21:12.913Z,951.5
2022-10-19T13:22:14.474Z,951.5
2022-10-19T13:23:16.022Z,951.5
2022-10-19T13:24:17.613Z,951.5
2022-10-19T13:25:19.575Z,951.5
2022-10-19T13:26:21.167Z,951.5
2022-10-19T13:27:22.742Z,951.4
2022-10-19T13:28:24.394Z,951.4
2022-10-19T13:29:26.220Z,951.4
2022-10-19T13:30:28.268Z,951.4
2022-10-19T13:31:29.882Z,951.4
2022-10-19T13:32:32.348Z,951.4
2022-10-19T13:33:34.699Z,951.4
2022-10-19T13:34:36.261Z,951.4